Belmar, New Jersey
Current Conditions -  °F | °C
As of 1:15 PM on Thursday 23 Oct 2014 (Local Time) from KBLM Reporting Station
Overcast Overcast  
Wind Chill: 52°   Ceiling: 1700
Heat Index: 52°   Visibility: 10mi
Dew Point: 46°   Wind: 14mph
Humidity: 82%   Direction: 310°NW
Pressure: 29.7"   Gusts: 18mph
Location:  40.18°N, 74.02°W
Report Text: KBLM 231715Z AUTO 31012G16KT 10SM FEW010 BKN017 OVC027 11/08 A2970 RMK AO1
Loading
Personal Weather Stations






























Interactive Weather Map New forecast layout! Learn more

10-Day Weather Forecast

Advertisements
Track Severe Weather on mobile